sensor_id;sensor_type;location;lat;lon;timestamp;pressure;altitude;pressure_sealevel;temperature;humidity
73860;BME280;62197;51.632;13.700;2023-08-30T00:01:10;99490.91;;;14.18;100.00
73860;BME280;62197;51.632;13.700;2023-08-30T00:03:36;99486.56;;;14.75;100.00
73860;BME280;62197;51.632;13.700;2023-08-30T00:06:05;99476.97;;;15.14;100.00
73860;BME280;62197;51.632;13.700;2023-08-30T00:08:32;99469.97;;;16.01;100.00
73860;BME280;62197;51.632;13.700;2023-08-30T00:10:57;99459.38;;;15.66;100.00
73860;BME280;62197;51.632;13.700;2023-08-30T00:13:24;99469.97;;;15.41;100.00
73860;BME280;62197;51.632;13.700;2023-08-30T00:15:50;99467.66;;;15.71;100.00
73860;BME280;62197;51.632;13.700;2023-08-30T00:18:15;99462.09;;;15.71;100.00
73860;BME280;62197;51.632;13.700;2023-08-30T00:20:44;99469.59;;;15.89;100.00
73860;BME280;62197;51.632;13.700;2023-08-30T00:23:09;99463.09;;;15.33;100.00
73860;BME280;62197;51.632;13.700;2023-08-30T00:25:34;99479.44;;;15.16;100.00
73860;BME280;62197;51.632;13.700;2023-08-30T00:28:00;99475.59;;;14.88;100.00
73860;BME280;62197;51.632;13.700;2023-08-30T00:30:25;99481.00;;;15.27;100.00
73860;BME280;62197;51.632;13.700;2023-08-30T00:32:50;99478.06;;;14.90;100.00
73860;BME280;62197;51.632;13.700;2023-08-30T00:35:16;99486.13;;;14.58;100.00
73860;BME280;62197;51.632;13.700;2023-08-30T00:37:41;99486.03;;;14.39;100.00
73860;BME280;62197;51.632;13.700;2023-08-30T00:40:07;99496.34;;;14.33;100.00
73860;BME280;62197;51.632;13.700;2023-08-30T00:42:32;99496.69;;;14.61;100.00
73860;BME280;62197;51.632;13.700;2023-08-30T00:44:57;99510.13;;;14.77;100.00
73860;BME280;62197;51.632;13.700;2023-08-30T00:47:23;99510.50;;;14.66;100.00
73860;BME280;62197;51.632;13.700;2023-08-30T00:49:48;99515.44;;;15.26;100.00
73860;BME280;62197;51.632;13.700;2023-08-30T00:52:14;99509.63;;;14.99;100.00
73860;BME280;62197;51.632;13.700;2023-08-30T00:54:39;99494.59;;;14.42;100.00
73860;BME280;62197;51.632;13.700;2023-08-30T00:57:04;99516.19;;;14.12;100.00
73860;BME280;62197;51.632;13.700;2023-08-30T00:59:32;99524.16;;;14.23;100.00
73860;BME280;62197;51.632;13.700;2023-08-30T01:01:59;99525.72;;;14.39;100.00
73860;BME280;62197;51.632;13.700;2023-08-30T01:04:24;99511.97;;;14.19;100.00
73860;BME280;62197;51.632;13.700;2023-08-30T01:06:50;99510.44;;;13.98;100.00
73860;BME280;62197;51.632;13.700;2023-08-30T01:09:16;99514.34;;;13.97;100.00
73860;BME280;62197;51.632;13.700;2023-08-30T01:17:13;99519.75;;;14.17;100.00
73860;BME280;62197;51.632;13.700;2023-08-30T01:19:42;99511.53;;;14.02;100.00
73860;BME280;62197;51.632;13.700;2023-08-30T01:27:41;99509.31;;;13.50;100.00
73860;BME280;62197;51.632;13.700;2023-08-30T01:30:09;99518.72;;;13.49;100.00
73860;BME280;62197;51.632;13.700;2023-08-30T01:32:36;99511.28;;;13.45;100.00
73860;BME280;62197;51.632;13.700;2023-08-30T01:35:03;99510.16;;;13.46;100.00
73860;BME280;62197;51.632;13.700;2023-08-30T01:37:29;99508.88;;;14.21;100.00
73860;BME280;62197;51.632;13.700;2023-08-30T01:39:56;99507.00;;;14.16;100.00
73860;BME280;62197;51.632;13.700;2023-08-30T01:42:23;99511.66;;;14.26;100.00
73860;BME280;62197;51.632;13.700;2023-08-30T01:44:51;99495.13;;;14.50;100.00
73860;BME280;62197;51.632;13.700;2023-08-30T01:47:20;99481.81;;;14.46;100.00
73860;BME280;62197;51.632;13.700;2023-08-30T01:49:46;99487.78;;;14.25;100.00
73860;BME280;62197;51.632;13.700;2023-08-30T01:52:12;99489.28;;;14.46;100.00
73860;BME280;62197;51.632;13.700;2023-08-30T01:54:39;99489.50;;;14.16;100.00
73860;BME280;62197;51.632;13.700;2023-08-30T01:57:06;99491.44;;;14.20;100.00
73860;BME280;62197;51.632;13.700;2023-08-30T01:59:31;99498.13;;;14.14;100.00
73860;BME280;62197;51.632;13.700;2023-08-30T02:01:56;99497.97;;;13.96;100.00
73860;BME280;62197;51.632;13.700;2023-08-30T02:04:22;99500.06;;;14.14;100.00
73860;BME280;62197;51.632;13.700;2023-08-30T02:06:58;99511.38;;;14.27;100.00
73860;BME280;62197;51.632;13.700;2023-08-30T02:12:02;99493.78;;;13.98;100.00
73860;BME280;62197;51.632;13.700;2023-08-30T02:14:32;99488.25;;;13.98;100.00
73860;BME280;62197;51.632;13.700;2023-08-30T02:16:58;99493.16;;;14.11;100.00
73860;BME280;62197;51.632;13.700;2023-08-30T02:19:23;99493.38;;;14.20;100.00
73860;BME280;62197;51.632;13.700;2023-08-30T02:21:49;99486.66;;;13.87;100.00
73860;BME280;62197;51.632;13.700;2023-08-30T02:24:14;99492.06;;;14.07;100.00
73860;BME280;62197;51.632;13.700;2023-08-30T02:26:39;99482.97;;;14.40;100.00
73860;BME280;62197;51.632;13.700;2023-08-30T02:29:05;99472.56;;;14.17;100.00
73860;BME280;62197;51.632;13.700;2023-08-30T02:31:30;99479.97;;;13.93;100.00
73860;BME280;62197;51.632;13.700;2023-08-30T02:33:55;99482.59;;;14.13;100.00
73860;BME280;62197;51.632;13.700;2023-08-30T02:36:21;99495.38;;;14.09;100.00
73860;BME280;62197;51.632;13.700;2023-08-30T02:38:46;99494.66;;;14.37;100.00
73860;BME280;62197;51.632;13.700;2023-08-30T02:41:11;99479.81;;;14.13;100.00
73860;BME280;62197;51.632;13.700;2023-08-30T02:43:37;99473.66;;;13.83;100.00
73860;BME280;62197;51.632;13.700;2023-08-30T02:46:03;99477.03;;;14.13;100.00
73860;BME280;62197;51.632;13.700;2023-08-30T02:48:29;99479.13;;;13.93;100.00
73860;BME280;62197;51.632;13.700;2023-08-30T02:50:54;99479.69;;;14.33;100.00
73860;BME280;62197;51.632;13.700;2023-08-30T02:53:20;99482.63;;;14.08;100.00
73860;BME280;62197;51.632;13.700;2023-08-30T02:55:46;99492.53;;;14.19;100.00
73860;BME280;62197;51.632;13.700;2023-08-30T02:58:12;99480.44;;;14.44;100.00
73860;BME280;62197;51.632;13.700;2023-08-30T03:00:37;99491.56;;;14.00;100.00
73860;BME280;62197;51.632;13.700;2023-08-30T03:03:03;99487.41;;;13.98;100.00
73860;BME280;62197;51.632;13.700;2023-08-30T03:05:29;99482.16;;;14.01;100.00
73860;BME280;62197;51.632;13.700;2023-08-30T03:07:54;99492.75;;;13.89;100.00
73860;BME280;62197;51.632;13.700;2023-08-30T03:10:19;99498.47;;;13.54;100.00
73860;BME280;62197;51.632;13.700;2023-08-30T03:12:45;99501.56;;;13.52;100.00
73860;BME280;62197;51.632;13.700;2023-08-30T03:15:10;99514.44;;;13.77;100.00
73860;BME280;62197;51.632;13.700;2023-08-30T03:17:36;99502.81;;;13.75;100.00
73860;BME280;62197;51.632;13.700;2023-08-30T03:20:01;99506.75;;;13.59;100.00
73860;BME280;62197;51.632;13.700;2023-08-30T03:22:29;99502.13;;;13.39;100.00
73860;BME280;62197;51.632;13.700;2023-08-30T03:24:54;99515.03;;;13.69;100.00
73860;BME280;62197;51.632;13.700;2023-08-30T03:27:19;99519.94;;;13.87;100.00
73860;BME280;62197;51.632;13.700;2023-08-30T03:29:45;99521.28;;;14.38;100.00
73860;BME280;62197;51.632;13.700;2023-08-30T03:32:13;99524.53;;;14.51;100.00
73860;BME280;62197;51.632;13.700;2023-08-30T03:34:38;99518.69;;;14.52;100.00
73860;BME280;62197;51.632;13.700;2023-08-30T03:37:03;99501.44;;;14.16;100.00
73860;BME280;62197;51.632;13.700;2023-08-30T03:39:29;99500.44;;;14.02;100.00
73860;BME280;62197;51.632;13.700;2023-08-30T03:41:54;99496.97;;;13.77;100.00
73860;BME280;62197;51.632;13.700;2023-08-30T03:44:19;99494.38;;;13.95;100.00
73860;BME280;62197;51.632;13.700;2023-08-30T03:46:45;99496.34;;;14.33;100.00
73860;BME280;62197;51.632;13.700;2023-08-30T03:49:10;99501.09;;;14.23;100.00
73860;BME280;62197;51.632;13.700;2023-08-30T03:51:36;99495.00;;;14.60;100.00
73860;BME280;62197;51.632;13.700;2023-08-30T03:54:01;99491.28;;;14.40;100.00
73860;BME280;62197;51.632;13.700;2023-08-30T03:56:27;99497.50;;;14.27;100.00
73860;BME280;62197;51.632;13.700;2023-08-30T03:58:52;99490.81;;;13.90;100.00
73860;BME280;62197;51.632;13.700;2023-08-30T04:01:17;99502.84;;;13.70;100.00
73860;BME280;62197;51.632;13.700;2023-08-30T04:03:43;99513.91;;;13.75;100.00
73860;BME280;62197;51.632;13.700;2023-08-30T04:06:08;99526.63;;;14.25;100.00
73860;BME280;62197;51.632;13.700;2023-08-30T04:08:33;99522.97;;;14.34;100.00
73860;BME280;62197;51.632;13.700;2023-08-30T04:10:59;99521.13;;;14.20;100.00
73860;BME280;62197;51.632;13.700;2023-08-30T04:13:24;99525.88;;;14.14;100.00
73860;BME280;62197;51.632;13.700;2023-08-30T04:15:49;99521.13;;;14.59;100.00
73860;BME280;62197;51.632;13.700;2023-08-30T04:18:16;99512.25;;;14.90;100.00
73860;BME280;62197;51.632;13.700;2023-08-30T04:20:45;99506.19;;;15.59;100.00
73860;BME280;62197;51.632;13.700;2023-08-30T04:23:11;99487.66;;;15.26;100.00
73860;BME280;62197;51.632;13.700;2023-08-30T04:25:36;99493.88;;;15.65;100.00
73860;BME280;62197;51.632;13.700;2023-08-30T04:28:02;99487.78;;;15.39;100.00
73860;BME280;62197;51.632;13.700;2023-08-30T04:30:27;99483.63;;;15.42;100.00
73860;BME280;62197;51.632;13.700;2023-08-30T04:32:52;99493.22;;;15.26;100.00
73860;BME280;62197;51.632;13.700;2023-08-30T04:35:18;99497.25;;;15.15;100.00
73860;BME280;62197;51.632;13.700;2023-08-30T04:37:43;99502.16;;;14.71;100.00
73860;BME280;62197;51.632;13.700;2023-08-30T04:40:09;99497.66;;;14.75;100.00
73860;BME280;62197;51.632;13.700;2023-08-30T04:42:35;99509.44;;;14.62;100.00
73860;BME280;62197;51.632;13.700;2023-08-30T04:45:01;99519.50;;;15.10;100.00
73860;BME280;62197;51.632;13.700;2023-08-30T04:47:28;99510.00;;;15.16;100.00
73860;BME280;62197;51.632;13.700;2023-08-30T04:49:54;99493.63;;;15.38;100.00
73860;BME280;62197;51.632;13.700;2023-08-30T04:52:19;99491.75;;;14.81;100.00
73860;BME280;62197;51.632;13.700;2023-08-30T04:54:45;99499.75;;;14.88;100.00
73860;BME280;62197;51.632;13.700;2023-08-30T04:57:16;99495.47;;;14.72;100.00
73860;BME280;62197;51.632;13.700;2023-08-30T04:59:43;99503.84;;;14.67;100.00
73860;BME280;62197;51.632;13.700;2023-08-30T05:02:09;99503.56;;;14.34;100.00
73860;BME280;62197;51.632;13.700;2023-08-30T05:04:35;99501.44;;;14.16;100.00
73860;BME280;62197;51.632;13.700;2023-08-30T05:07:01;99504.19;;;14.21;100.00
73860;BME280;62197;51.632;13.700;2023-08-30T05:09:26;99506.22;;;14.50;100.00
73860;BME280;62197;51.632;13.700;2023-08-30T05:11:52;99507.47;;;14.33;100.00
73860;BME280;62197;51.632;13.700;2023-08-30T05:14:17;99498.09;;;14.19;100.00
73860;BME280;62197;51.632;13.700;2023-08-30T05:16:43;99502.19;;;13.88;100.00
73860;BME280;62197;51.632;13.700;2023-08-30T05:19:08;99508.84;;;13.87;100.00
73860;BME280;62197;51.632;13.700;2023-08-30T05:21:33;99516.88;;;14.32;100.00
73860;BME280;62197;51.632;13.700;2023-08-30T05:23:59;99511.19;;;14.53;100.00
73860;BME280;62197;51.632;13.700;2023-08-30T05:26:24;99511.81;;;14.44;100.00
73860;BME280;62197;51.632;13.700;2023-08-30T05:28:49;99507.47;;;14.33;100.00
73860;BME280;62197;51.632;13.700;2023-08-30T05:31:15;99501.31;;;14.36;100.00
73860;BME280;62197;51.632;13.700;2023-08-30T05:33:40;99501.41;;;14.60;100.00
73860;BME280;62197;51.632;13.700;2023-08-30T05:36:05;99502.53;;;14.59;100.00
73860;BME280;62197;51.632;13.700;2023-08-30T05:38:31;99506.78;;;14.46;100.00
73860;BME280;62197;51.632;13.700;2023-08-30T05:40:56;99513.66;;;14.88;100.00
73860;BME280;62197;51.632;13.700;2023-08-30T05:43:21;99509.06;;;15.02;100.00
73860;BME280;62197;51.632;13.700;2023-08-30T05:45:47;99506.22;;;15.07;100.00
73860;BME280;62197;51.632;13.700;2023-08-30T05:48:12;99499.38;;;15.23;100.00
73860;BME280;62197;51.632;13.700;2023-08-30T05:50:38;99493.22;;;15.26;100.00
73860;BME280;62197;51.632;13.700;2023-08-30T05:53:03;99492.53;;;15.15;100.00
73860;BME280;62197;51.632;13.700;2023-08-30T05:55:29;99499.66;;;14.98;100.00
73860;BME280;62197;51.632;13.700;2023-08-30T05:57:54;99499.84;;;14.78;100.00
73860;BME280;62197;51.632;13.700;2023-08-30T06:00:20;99500.84;;;14.63;100.00
73860;BME280;62197;51.632;13.700;2023-08-30T06:02:45;99502.81;;;14.58;100.00
73860;BME280;62197;51.632;13.700;2023-08-30T06:05:11;99503.78;;;15.00;100.00
73860;BME280;62197;51.632;13.700;2023-08-30T06:07:36;99505.22;;;15.50;100.00
73860;BME280;62197;51.632;13.700;2023-08-30T06:10:02;99493.66;;;15.80;100.00
73860;BME280;62197;51.632;13.700;2023-08-30T06:12:27;99482.34;;;15.53;100.00
73860;BME280;62197;51.632;13.700;2023-08-30T06:14:53;99481.88;;;15.70;100.00
73860;BME280;62197;51.632;13.700;2023-08-30T06:17:19;99475.31;;;16.16;100.00
73860;BME280;62197;51.632;13.700;2023-08-30T06:19:45;99464.19;;;16.16;100.00
73860;BME280;62197;51.632;13.700;2023-08-30T06:22:10;99464.38;;;16.06;100.00
73860;BME280;62197;51.632;13.700;2023-08-30T06:24:35;99451.19;;;15.75;100.00
73860;BME280;62197;51.632;13.700;2023-08-30T06:27:01;99456.97;;;15.78;100.00
73860;BME280;62197;51.632;13.700;2023-08-30T06:29:26;99461.03;;;15.67;100.00
73860;BME280;62197;51.632;13.700;2023-08-30T06:31:52;99470.66;;;15.56;100.00
73860;BME280;62197;51.632;13.700;2023-08-30T06:34:17;99464.78;;;15.76;100.00
73860;BME280;62197;51.632;13.700;2023-08-30T06:36:43;99464.50;;;15.96;100.00
73860;BME280;62197;51.632;13.700;2023-08-30T06:39:08;99456.78;;;15.51;100.00
73860;BME280;62197;51.632;13.700;2023-08-30T06:41:33;99462.59;;;15.55;100.00
73860;BME280;62197;51.632;13.700;2023-08-30T06:43:59;99469.38;;;15.86;100.00
73860;BME280;62197;51.632;13.700;2023-08-30T06:46:24;99470.34;;;15.76;100.00
73860;BME280;62197;51.632;13.700;2023-08-30T06:48:49;99471.13;;;16.00;100.00
73860;BME280;62197;51.632;13.700;2023-08-30T06:51:15;99471.75;;;15.55;100.00
73860;BME280;62197;51.632;13.700;2023-08-30T06:53:40;99476.88;;;15.67;100.00
73860;BME280;62197;51.632;13.700;2023-08-30T06:56:05;99486.09;;;16.23;100.00
73860;BME280;62197;51.632;13.700;2023-08-30T06:58:31;99480.78;;;16.40;100.00
73860;BME280;62197;51.632;13.700;2023-08-30T07:01:00;99480.06;;;16.16;100.00
73860;BME280;62197;51.632;13.700;2023-08-30T07:03:25;99482.03;;;16.15;100.00
73860;BME280;62197;51.632;13.700;2023-08-30T07:05:51;99474.00;;;16.46;100.00
73860;BME280;62197;51.632;13.700;2023-08-30T07:08:16;99474.31;;;16.26;100.00
73860;BME280;62197;51.632;13.700;2023-08-30T07:10:42;99474.78;;;16.14;100.00
73860;BME280;62197;51.632;13.700;2023-08-30T07:13:08;99489.16;;;16.21;100.00
73860;BME280;62197;51.632;13.700;2023-08-30T07:15:40;99482.97;;;15.87;100.00
73860;BME280;62197;51.632;13.700;2023-08-30T07:18:06;99493.13;;;15.97;100.00
73860;BME280;62197;51.632;13.700;2023-08-30T07:20:31;99483.31;;;16.04;100.00
73860;BME280;62197;51.632;13.700;2023-08-30T07:22:57;99493.22;;;16.10;100.00
73860;BME280;62197;51.632;13.700;2023-08-30T07:25:22;99490.81;;;16.04;100.00
73860;BME280;62197;51.632;13.700;2023-08-30T07:27:47;99492.63;;;16.13;100.00
73860;BME280;62197;51.632;13.700;2023-08-30T07:30:13;99502.63;;;16.14;100.00
73860;BME280;62197;51.632;13.700;2023-08-30T07:32:38;99502.47;;;16.24;100.00
73860;BME280;62197;51.632;13.700;2023-08-30T07:35:04;99502.78;;;16.23;100.00
73860;BME280;62197;51.632;13.700;2023-08-30T07:37:30;99513.56;;;16.30;100.00
73860;BME280;62197;51.632;13.700;2023-08-30T07:39:55;99512.78;;;16.05;100.00
73860;BME280;62197;51.632;13.700;2023-08-30T07:42:20;99521.72;;;15.84;100.00
73860;BME280;62197;51.632;13.700;2023-08-30T07:44:46;99524.66;;;15.92;100.00
73860;BME280;62197;51.632;13.700;2023-08-30T07:47:11;99525.22;;;16.32;100.00
73860;BME280;62197;51.632;13.700;2023-08-30T07:49:36;99517.81;;;16.59;100.00
73860;BME280;62197;51.632;13.700;2023-08-30T07:52:02;99513.47;;;16.85;100.00
73860;BME280;62197;51.632;13.700;2023-08-30T07:54:28;99508.38;;;16.74;100.00
73860;BME280;62197;51.632;13.700;2023-08-30T07:56:53;99501.22;;;17.00;100.00
73860;BME280;62197;51.632;13.700;2023-08-30T07:59:18;99478.06;;;16.99;100.00
73860;BME280;62197;51.632;13.700;2023-08-30T08:01:44;99481.00;;;17.22;100.00
73860;BME280;62197;51.632;13.700;2023-08-30T08:04:09;99482.22;;;17.02;100.00
73860;BME280;62197;51.632;13.700;2023-08-30T08:06:34;99483.41;;;17.28;100.00
73860;BME280;62197;51.632;13.700;2023-08-30T08:09:00;99471.28;;;17.19;100.00
73860;BME280;62197;51.632;13.700;2023-08-30T08:11:25;99476.72;;;16.83;100.00
73860;BME280;62197;51.632;13.700;2023-08-30T08:13:51;99477.50;;;17.16;100.00
73860;BME280;62197;51.632;13.700;2023-08-30T08:16:16;99471.91;;;17.16;100.00
73860;BME280;62197;51.632;13.700;2023-08-30T08:18:41;99472.13;;;17.33;100.00
73860;BME280;62197;51.632;13.700;2023-08-30T08:21:07;99475.44;;;17.35;100.00
73860;BME280;62197;51.632;13.700;2023-08-30T08:23:32;99472.00;;;17.38;100.00
73860;BME280;62197;51.632;13.700;2023-08-30T08:25:58;99477.53;;;17.57;100.00
73860;BME280;62197;51.632;13.700;2023-08-30T08:28:24;99471.75;;;17.53;100.00
73860;BME280;62197;51.632;13.700;2023-08-30T08:30:49;99471.00;;;17.48;100.00
73860;BME280;62197;51.632;13.700;2023-08-30T08:33:16;99464.81;;;17.64;100.00
73860;BME280;62197;51.632;13.700;2023-08-30T08:35:42;99461.13;;;17.91;100.00
73860;BME280;62197;51.632;13.700;2023-08-30T08:38:07;99458.44;;;17.99;100.00
73860;BME280;62197;51.632;13.700;2023-08-30T08:40:37;99454.63;;;18.18;100.00
73860;BME280;62197;51.632;13.700;2023-08-30T08:43:03;99458.16;;;18.23;100.00
73860;BME280;62197;51.632;13.700;2023-08-30T08:45:32;99455.88;;;18.25;100.00
73860;BME280;62197;51.632;13.700;2023-08-30T08:47:59;99442.97;;;18.38;100.00
73860;BME280;62197;51.632;13.700;2023-08-30T08:50:26;99434.50;;;18.43;100.00
73860;BME280;62197;51.632;13.700;2023-08-30T08:52:53;99438.69;;;18.54;100.00
73860;BME280;62197;51.632;13.700;2023-08-30T08:55:18;99439.56;;;18.63;100.00
73860;BME280;62197;51.632;13.700;2023-08-30T08:57:45;99434.47;;;18.87;100.00
73860;BME280;62197;51.632;13.700;2023-08-30T09:00:12;99424.91;;;18.88;100.00
73860;BME280;62197;51.632;13.700;2023-08-30T09:02:38;99427.84;;;18.83;100.00
73860;BME280;62197;51.632;13.700;2023-08-30T09:05:04;99415.28;;;19.03;100.00
73860;BME280;62197;51.632;13.700;2023-08-30T09:07:30;99417.47;;;18.53;100.00
73860;BME280;62197;51.632;13.700;2023-08-30T09:09:56;99422.06;;;19.10;100.00
73860;BME280;62197;51.632;13.700;2023-08-30T09:12:22;99417.38;;;18.66;100.00
73860;BME280;62197;51.632;13.700;2023-08-30T09:14:56;99427.53;;;18.54;100.00
73860;BME280;62197;51.632;13.700;2023-08-30T09:17:22;99424.63;;;18.98;100.00
73860;BME280;62197;51.632;13.700;2023-08-30T09:19:48;99429.75;;;19.35;100.00
73860;BME280;62197;51.632;13.700;2023-08-30T09:22:13;99429.09;;;19.38;100.00
73860;BME280;62197;51.632;13.700;2023-08-30T09:24:39;99417.13;;;19.46;100.00
73860;BME280;62197;51.632;13.700;2023-08-30T09:27:05;99416.63;;;19.44;100.00
73860;BME280;62197;51.632;13.700;2023-08-30T09:29:30;99415.50;;;19.62;100.00
73860;BME280;62197;51.632;13.700;2023-08-30T09:31:56;99422.28;;;19.96;100.00
73860;BME280;62197;51.632;13.700;2023-08-30T09:34:23;99416.88;;;19.82;100.00
73860;BME280;62197;51.632;13.700;2023-08-30T09:36:49;99417.53;;;20.05;100.00
73860;BME280;62197;51.632;13.700;2023-08-30T09:39:15;99421.34;;;20.26;100.00
73860;BME280;62197;51.632;13.700;2023-08-30T09:41:42;99410.41;;;20.50;100.00
73860;BME280;62197;51.632;13.700;2023-08-30T09:44:14;99411.09;;;20.47;100.00
73860;BME280;62197;51.632;13.700;2023-08-30T09:46:45;99401.81;;;20.72;100.00
73860;BME280;62197;51.632;13.700;2023-08-30T09:49:11;99411.28;;;20.33;100.00
73860;BME280;62197;51.632;13.700;2023-08-30T09:51:41;99405.47;;;19.96;100.00
73860;BME280;62197;51.632;13.700;2023-08-30T09:54:14;99405.50;;;20.13;100.00
73860;BME280;62197;51.632;13.700;2023-08-30T09:56:41;99408.13;;;20.09;100.00
73860;BME280;62197;51.632;13.700;2023-08-30T09:59:07;99405.84;;;20.28;100.00
73860;BME280;62197;51.632;13.700;2023-08-30T10:01:36;99405.53;;;20.30;100.00
73860;BME280;62197;51.632;13.700;2023-08-30T10:04:02;99400.56;;;20.44;100.00
73860;BME280;62197;51.632;13.700;2023-08-30T10:06:29;99398.41;;;20.41;100.00
73860;BME280;62197;51.632;13.700;2023-08-30T10:08:56;99391.00;;;20.45;100.00
73860;BME280;62197;51.632;13.700;2023-08-30T10:11:23;99392.97;;;20.02;100.00
73860;BME280;62197;51.632;13.700;2023-08-30T10:13:51;99387.38;;;20.27;100.00
73860;BME280;62197;51.632;13.700;2023-08-30T10:16:22;99396.44;;;20.33;100.00
73860;BME280;62197;51.632;13.700;2023-08-30T10:18:52;99394.59;;;20.54;100.00
73860;BME280;62197;51.632;13.700;2023-08-30T10:21:20;99402.50;;;20.52;100.00
73860;BME280;62197;51.632;13.700;2023-08-30T10:23:48;99396.75;;;20.14;100.00
73860;BME280;62197;51.632;13.700;2023-08-30T10:26:16;99402.72;;;20.21;100.00
73860;BME280;62197;51.632;13.700;2023-08-30T10:28:43;99398.72;;;20.14;100.00
73860;BME280;62197;51.632;13.700;2023-08-30T10:31:09;99402.53;;;20.01;100.00
73860;BME280;62197;51.632;13.700;2023-08-30T10:33:46;99409.66;;;20.24;100.00
73860;BME280;62197;51.632;13.700;2023-08-30T10:36:20;99407.16;;;20.31;100.00
73860;BME280;62197;51.632;13.700;2023-08-30T10:38:52;99412.13;;;20.34;100.00
73860;BME280;62197;51.632;13.700;2023-08-30T10:41:26;99407.69;;;20.24;100.00
73860;BME280;62197;51.632;13.700;2023-08-30T10:43:55;99408.78;;;20.57;100.00
73860;BME280;62197;51.632;13.700;2023-08-30T10:46:34;99405.78;;;20.71;100.00
73860;BME280;62197;51.632;13.700;2023-08-30T10:49:13;99408.25;;;20.73;100.00
73860;BME280;62197;51.632;13.700;2023-08-30T10:51:42;99412.09;;;20.59;100.00
73860;BME280;62197;51.632;13.700;2023-08-30T10:54:16;99408.13;;;20.52;100.00
73860;BME280;62197;51.632;13.700;2023-08-30T10:57:04;99412.72;;;20.56;100.00
73860;BME280;62197;51.632;13.700;2023-08-30T10:59:29;99410.75;;;20.57;100.00
73860;BME280;62197;51.632;13.700;2023-08-30T11:01:55;99420.34;;;20.22;100.00
73860;BME280;62197;51.632;13.700;2023-08-30T11:04:24;99412.41;;;19.90;100.00
73860;BME280;62197;51.632;13.700;2023-08-30T11:06:51;99417.66;;;20.00;100.00
73860;BME280;62197;51.632;13.700;2023-08-30T11:09:18;99423.28;;;20.00;100.00
73860;BME280;62197;51.632;13.700;2023-08-30T11:11:45;99414.88;;;19.83;100.00
73860;BME280;62197;51.632;13.700;2023-08-30T11:14:11;99420.66;;;20.03;100.00
73860;BME280;62197;51.632;13.700;2023-08-30T11:16:37;99415.03;;;20.12;100.00
73860;BME280;62197;51.632;13.700;2023-08-30T11:19:04;99412.25;;;20.03;100.00
73860;BME280;62197;51.632;13.700;2023-08-30T11:21:30;99405.31;;;20.18;100.00
73860;BME280;62197;51.632;13.700;2023-08-30T11:23:57;99408.59;;;20.71;100.00
73860;BME280;62197;51.632;13.700;2023-08-30T11:26:22;99406.91;;;20.79;100.00
73860;BME280;62197;51.632;13.700;2023-08-30T11:28:48;99411.25;;;21.14;100.00
73860;BME280;62197;51.632;13.700;2023-08-30T11:31:24;99407.72;;;21.25;100.00
73860;BME280;62197;51.632;13.700;2023-08-30T11:33:53;99415.44;;;21.08;100.00
73860;BME280;62197;51.632;13.700;2023-08-30T11:36:21;99417.13;;;20.83;100.00
73860;BME280;62197;51.632;13.700;2023-08-30T11:38:50;99403.09;;;20.83;100.00
73860;BME280;62197;51.632;13.700;2023-08-30T11:41:16;99414.34;;;20.66;100.00
73860;BME280;62197;51.632;13.700;2023-08-30T11:43:41;99405.78;;;20.71;100.00
73860;BME280;62197;51.632;13.700;2023-08-30T11:46:08;99406.38;;;20.85;100.00
73860;BME280;62197;51.632;13.700;2023-08-30T11:48:34;99402.19;;;20.36;100.00
73860;BME280;62197;51.632;13.700;2023-08-30T11:50:59;99399.56;;;20.48;100.00
73860;BME280;62197;51.632;13.700;2023-08-30T11:53:25;99405.16;;;20.57;100.00
73860;BME280;62197;51.632;13.700;2023-08-30T11:55:51;99397.88;;;20.56;100.00
73860;BME280;62197;51.632;13.700;2023-08-30T11:58:18;99389.16;;;20.57;100.00
73860;BME280;62197;51.632;13.700;2023-08-30T12:00:44;99392.00;;;20.32;100.00
73860;BME280;62197;51.632;13.700;2023-08-30T12:03:13;99391.81;;;20.37;100.00
73860;BME280;62197;51.632;13.700;2023-08-30T12:05:44;99394.59;;;20.54;100.00
73860;BME280;62197;51.632;13.700;2023-08-30T12:08:17;99386.41;;;20.87;100.00
73860;BME280;62197;51.632;13.700;2023-08-30T12:10:43;99379.28;;;20.98;100.00
73860;BME280;62197;51.632;13.700;2023-08-30T12:13:22;99376.56;;;21.77;100.00
73860;BME280;62197;51.632;13.700;2023-08-30T12:15:48;99371.88;;;23.32;100.00
73860;BME280;62197;51.632;13.700;2023-08-30T12:18:13;99374.00;;;24.39;100.00
73860;BME280;62197;51.632;13.700;2023-08-30T12:20:38;99366.66;;;24.22;100.00
73860;BME280;62197;51.632;13.700;2023-08-30T12:23:04;99370.97;;;25.34;99.59
73860;BME280;62197;51.632;13.700;2023-08-30T12:25:29;99366.38;;;26.30;92.52
73860;BME280;62197;51.632;13.700;2023-08-30T12:27:56;99367.38;;;27.47;93.25
73860;BME280;62197;51.632;13.700;2023-08-30T12:30:21;99358.50;;;26.04;94.23
73860;BME280;62197;51.632;13.700;2023-08-30T12:32:47;99359.56;;;25.30;100.00
73860;BME280;62197;51.632;13.700;2023-08-30T12:35:13;99356.69;;;27.14;93.68
73860;BME280;62197;51.632;13.700;2023-08-30T12:37:38;99345.38;;;27.37;79.94
73860;BME280;62197;51.632;13.700;2023-08-30T12:40:04;99360.41;;;25.81;90.09
73860;BME280;62197;51.632;13.700;2023-08-30T12:42:31;99353.16;;;26.75;84.09
73860;BME280;62197;51.632;13.700;2023-08-30T12:44:56;99350.41;;;28.32;84.55
73860;BME280;62197;51.632;13.700;2023-08-30T12:47:21;99342.69;;;28.00;70.50
73860;BME280;62197;51.632;13.700;2023-08-30T12:49:47;99344.06;;;27.83;75.94